createdAt,value
2019-06-08T00:00:26.208Z,100690.06
2019-06-08T00:01:02.166Z,100690.86
2019-06-08T00:01:38.143Z,100700.23
2019-06-08T00:02:14.706Z,100700.23
2019-06-08T00:02:50.700Z,100701.89
2019-06-08T00:03:26.797Z,100693.80
2019-06-08T00:04:02.648Z,100693.80
2019-06-08T00:04:38.544Z,100694.26
2019-06-08T00:05:14.923Z,100694.77
2019-06-08T00:05:51.129Z,100699.83
2019-06-08T00:06:27.105Z,100698.67
2019-06-08T00:07:03.066Z,100702.94
2019-06-08T00:07:39.143Z,100702.05
2019-06-08T00:08:15.030Z,100703.36
2019-06-08T00:08:50.992Z,100710.06
2019-06-08T00:09:27.383Z,100704.15
2019-06-08T00:10:03.454Z,100709.83
2019-06-08T00:10:39.368Z,100711.52
2019-06-08T00:11:15.257Z,100707.28
2019-06-08T00:11:51.154Z,100713.06
2019-06-08T00:12:27.213Z,100706.97
2019-06-08T00:13:03.101Z,100713.24
2019-06-08T00:13:39.145Z,100714.41
2019-06-08T00:14:15.196Z,100713.38
2019-06-08T00:14:51.105Z,100712.63
2019-06-08T00:15:26.983Z,100715.72
2019-06-08T00:16:02.884Z,100716.88
2019-06-08T00:16:40.278Z,100722.99
2019-06-08T00:17:30.354Z,100717.43
2019-06-08T00:17:53.774Z,100722.75
2019-06-08T00:18:29.691Z,100718.13
2019-06-08T00:19:07.175Z,100721.14
2019-06-08T00:19:43.008Z,100721.63
2019-06-08T00:20:21.758Z,100728.66
2019-06-08T00:20:57.862Z,100726.44
2019-06-08T00:21:34.059Z,100731.86
2019-06-08T00:22:09.902Z,100732.66
2019-06-08T00:22:45.766Z,100734.09
2019-06-08T00:23:22.012Z,100732.91
2019-06-08T00:23:57.964Z,100734.33
2019-06-08T00:24:33.798Z,100733.35
2019-06-08T00:25:09.784Z,100731.23
2019-06-08T00:25:46.239Z,100732.34
2019-06-08T00:26:22.203Z,100729.14
2019-06-08T00:26:58.151Z,100734.74
2019-06-08T00:27:34.152Z,100730.75
2019-06-08T00:28:10.276Z,100742.22
2019-06-08T00:28:46.324Z,100734.56
2019-06-08T00:29:22.481Z,100739.68
2019-06-08T00:29:58.424Z,100735.05
2019-06-08T00:30:37.226Z,100733.45
2019-06-08T00:31:13.339Z,100741.59
2019-06-08T00:31:49.235Z,100737.77
2019-06-08T00:32:25.157Z,100733.95
2019-06-08T00:33:01.111Z,100739.06
2019-06-08T00:33:36.974Z,100738.25
2019-06-08T00:34:12.843Z,100742.08
2019-06-08T00:34:48.728Z,100744.38
2019-06-08T00:35:24.924Z,100745.98
2019-06-08T00:36:00.939Z,100742.95
2019-06-08T00:36:49.376Z,100748.38
2019-06-08T00:37:25.198Z,100752.37
2019-06-08T00:38:01.167Z,100750.98
2019-06-08T00:38:38.598Z,100747.95
2019-06-08T00:39:14.744Z,100755.78
2019-06-08T00:39:50.821Z,100749.56
2019-06-08T00:40:26.804Z,100752.94
2019-06-08T00:41:04.167Z,100755.52
2019-06-08T00:41:40.134Z,100760.31
2019-06-08T00:42:17.148Z,100762.09
2019-06-08T00:42:53.061Z,100762.28
2019-06-08T00:43:29.082Z,100756.23
2019-06-08T00:44:04.958Z,100762.14
2019-06-08T00:44:40.913Z,100767.44
2019-06-08T00:45:17.335Z,100770.00
2019-06-08T00:45:53.477Z,100768.01
2019-06-08T00:46:29.380Z,100763.86
2019-06-08T00:47:05.300Z,100762.91
2019-06-08T00:47:47.441Z,100769.63
2019-06-08T00:48:19.509Z,100763.57
2019-06-08T00:48:56.518Z,100766.77
2019-06-08T00:49:32.403Z,100771.08
2019-06-08T00:50:08.503Z,100774.28
2019-06-08T00:50:44.437Z,100766.63
2019-06-08T00:51:20.996Z,100769.85
2019-06-08T00:51:57.151Z,100765.70
2019-06-08T00:52:33.187Z,100765.38
2019-06-08T00:53:09.104Z,100764.75
2019-06-08T00:53:44.987Z,100774.18
2019-06-08T00:54:21.558Z,100768.59
2019-06-08T00:54:57.603Z,100777.20
2019-06-08T00:55:33.473Z,100773.48
2019-06-08T00:56:09.967Z,100774.65
2019-06-08T00:56:45.910Z,100775.95
2019-06-08T00:57:21.847Z,100770.36
2019-06-08T00:57:57.735Z,100774.55
2019-06-08T00:58:33.614Z,100787.14
2019-06-08T00:59:11.548Z,100786.48
2019-06-08T00:59:47.455Z,100788.48
2019-06-08T01:00:24.534Z,100794.36
2019-06-08T01:01:00.594Z,100791.38
2019-06-08T01:01:36.584Z,100792.63
2019-06-08T01:02:12.478Z,100793.36
2019-06-08T01:02:48.330Z,100786.47
2019-06-08T01:03:24.190Z,100793.94
2019-06-08T01:04:00.206Z,100795.98
2019-06-08T01:04:36.144Z,100794.98
2019-06-08T01:05:12.108Z,100799.29
2019-06-08T01:05:48.034Z,100795.59
2019-06-08T01:06:24.974Z,100793.02
2019-06-08T01:07:01.007Z,100792.00
2019-06-08T01:07:36.969Z,100795.83
2019-06-08T01:08:12.929Z,100789.19
2019-06-08T01:08:49.341Z,100797.92
2019-06-08T01:09:26.240Z,100800.77
2019-06-08T01:10:02.497Z,100794.45
2019-06-08T01:10:38.437Z,100790.04
2019-06-08T01:11:14.346Z,100790.09
2019-06-08T01:11:50.441Z,100793.12
2019-06-08T01:12:26.835Z,100791.41
2019-06-08T01:13:03.112Z,100791.36
2019-06-08T01:13:39.119Z,100797.77
2019-06-08T01:14:15.155Z,100783.13
2019-06-08T01:14:51.301Z,100778.74
2019-06-08T01:15:32.904Z,100787.89
2019-06-08T01:16:05.119Z,100789.09
2019-06-08T01:16:41.212Z,100780.98
2019-06-08T01:17:17.050Z,100782.89
2019-06-08T01:18:02.033Z,100781.52
2019-06-08T01:18:30.730Z,100778.18
2019-06-08T01:19:06.575Z,100776.47
2019-06-08T01:19:43.375Z,100780.83
2019-06-08T01:20:19.518Z,100785.98
2019-06-08T01:20:55.602Z,100783.26
2019-06-08T01:21:31.731Z,100777.50
2019-06-08T01:22:07.784Z,100784.24
2019-06-08T01:22:44.147Z,100780.74
2019-06-08T01:23:21.501Z,100778.05
2019-06-08T01:23:57.689Z,100781.55
2019-06-08T01:24:34.382Z,100781.85
2019-06-08T01:25:10.459Z,100788.42
2019-06-08T01:25:46.350Z,100784.08
2019-06-08T01:26:22.708Z,100789.05
2019-06-08T01:26:59.903Z,100790.80
2019-06-08T01:27:35.879Z,100793.05
2019-06-08T01:28:11.760Z,100791.12
2019-06-08T01:28:47.754Z,100785.36
2019-06-08T01:29:24.153Z,100787.28
2019-06-08T01:30:00.157Z,100785.53
2019-06-08T01:30:35.990Z,100788.88
2019-06-08T01:31:11.865Z,100784.85
2019-06-08T01:31:49.114Z,100790.11
2019-06-08T01:32:26.338Z,100773.63
2019-06-08T01:33:02.553Z,100781.14
2019-06-08T01:33:38.434Z,100778.38
2019-06-08T01:34:14.283Z,100777.58
2019-06-08T01:34:51.072Z,100784.15
2019-06-08T01:35:27.017Z,100789.49
2019-06-08T01:36:02.902Z,100783.39
2019-06-08T01:36:38.808Z,100784.15
2019-06-08T01:37:14.759Z,100785.56
2019-06-08T01:37:50.772Z,100782.05
2019-06-08T01:38:27.209Z,100788.58
2019-06-08T01:39:03.349Z,100788.72
2019-06-08T01:39:39.493Z,100781.02
2019-06-08T01:40:15.540Z,100784.68
2019-06-08T01:40:52.095Z,100782.34
2019-06-08T01:41:27.976Z,100786.84
2019-06-08T01:42:04.624Z,100777.16
2019-06-08T01:42:40.554Z,100787.27
2019-06-08T01:43:16.555Z,100785.25
2019-06-08T01:43:52.455Z,100786.88
2019-06-08T01:44:28.325Z,100793.16
2019-06-08T01:45:04.332Z,100789.05
2019-06-08T01:45:40.251Z,100783.44
2019-06-08T01:46:16.199Z,100789.22
2019-06-08T01:46:52.143Z,100794.33
2019-06-08T01:47:28.343Z,100790.50
2019-06-08T01:48:18.749Z,100797.23
2019-06-08T01:48:43.072Z,100803.64
2019-06-08T01:49:18.917Z,100799.45
2019-06-08T01:49:54.869Z,100798.50
2019-06-08T01:50:32.687Z,100801.83
2019-06-08T01:51:08.863Z,100793.84
2019-06-08T01:51:44.850Z,100799.44
2019-06-08T01:52:20.739Z,100793.66
2019-06-08T01:53:00.543Z,100791.73
2019-06-08T01:53:36.700Z,100805.80
2019-06-08T01:54:12.561Z,100801.29
2019-06-08T01:54:50.091Z,100795.05
2019-06-08T01:55:28.943Z,100790.58
2019-06-08T01:56:06.205Z,100795.20
2019-06-08T01:56:42.259Z,100794.77
2019-06-08T01:57:18.994Z,100797.03
2019-06-08T01:57:54.884Z,100796.44
2019-06-08T01:58:31.429Z,100799.13
2019-06-08T01:59:07.454Z,100793.84
2019-06-08T01:59:43.939Z,100797.21
2019-06-08T02:00:29.772Z,100799.13
2019-06-08T02:00:57.925Z,100794.97
2019-06-08T02:01:36.790Z,100797.39
2019-06-08T02:02:12.732Z,100799.16
2019-06-08T02:02:48.781Z,100805.85
2019-06-08T02:03:29.966Z,100812.89
2019-06-08T02:04:06.425Z,100794.97
2019-06-08T02:04:44.082Z,100804.40
2019-06-08T02:05:20.130Z,100808.11
2019-06-08T02:05:56.166Z,100808.91
2019-06-08T02:06:32.482Z,100810.50
2019-06-08T02:07:08.433Z,100814.02
2019-06-08T02:07:45.133Z,100810.19
2019-06-08T02:08:21.207Z,100812.57
2019-06-08T02:08:57.302Z,100814.98
2019-06-08T02:09:33.319Z,100817.07
2019-06-08T02:10:09.896Z,100812.41
2019-06-08T02:10:45.831Z,100813.85
2019-06-08T02:11:21.831Z,100812.41
2019-06-08T02:11:57.792Z,100813.67
2019-06-08T02:12:35.212Z,100815.75
2019-06-08T02:13:11.384Z,100815.39
2019-06-08T02:13:47.388Z,100822.27
2019-06-08T02:14:25.022Z,100813.64
2019-06-08T02:15:01.094Z,100814.91
2019-06-08T02:15:37.172Z,100822.27
2019-06-08T02:16:13.129Z,100821.78
2019-06-08T02:16:49.182Z,100818.58
2019-06-08T02:17:25.206Z,100810.27
2019-06-08T02:18:01.098Z,100815.88
2019-06-08T02:18:48.938Z,100808.52
2019-06-08T02:19:14.677Z,100812.36
2019-06-08T02:19:50.621Z,100813.95
2019-06-08T02:20:26.723Z,100812.84
2019-06-08T02:21:02.767Z,100811.23
2019-06-08T02:21:40.250Z,100817.31
2019-06-08T02:22:16.188Z,100814.11
2019-06-08T02:22:52.069Z,100811.72
2019-06-08T02:23:29.136Z,100810.91
2019-06-08T02:24:05.058Z,100814.75
2019-06-08T02:24:40.958Z,100809.31
2019-06-08T02:25:18.066Z,100803.88
2019-06-08T02:25:53.979Z,100806.28
2019-06-08T02:26:30.995Z,100813.48
2019-06-08T02:27:07.561Z,100809.48
2019-06-08T02:27:43.509Z,100811.27
2019-06-08T02:28:19.430Z,100807.13
2019-06-08T02:28:55.471Z,100814.83
2019-06-08T02:29:31.630Z,100806.19
2019-06-08T02:30:09.427Z,100802.34
2019-06-08T02:30:45.361Z,100804.59
2019-06-08T02:31:21.348Z,100806.16
2019-06-08T02:31:58.008Z,100796.03
2019-06-08T02:32:35.573Z,100788.19
2019-06-08T02:33:13.067Z,100799.36
2019-06-08T02:33:49.520Z,100791.52
2019-06-08T02:34:25.659Z,100796.02
2019-06-08T02:35:04.871Z,100791.09
2019-06-08T02:35:41.970Z,100788.98
2019-06-08T02:36:18.668Z,100793.96
2019-06-08T02:36:56.654Z,100785.94
2019-06-08T02:37:33.197Z,100790.23
2019-06-08T02:38:10.201Z,100784.21
2019-06-08T02:38:46.869Z,100788.64
2019-06-08T02:39:24.712Z,100789.72
2019-06-08T02:40:01.433Z,100787.98
2019-06-08T02:40:37.929Z,100791.56
2019-06-08T02:41:14.180Z,100791.12
2019-06-08T02:41:50.205Z,100792.77
2019-06-08T02:42:28.522Z,100788.95
2019-06-08T02:43:06.051Z,100794.86
2019-06-08T02:43:42.792Z,100790.72
2019-06-08T02:44:19.234Z,100796.82
2019-06-08T02:44:55.582Z,100799.08
2019-06-08T02:45:34.088Z,100791.52
2019-06-08T02:46:13.278Z,100790.38
2019-06-08T02:46:49.669Z,100791.35
2019-06-08T02:47:28.261Z,100802.53
2019-06-08T02:48:05.001Z,100797.48
2019-06-08T02:49:02.411Z,100802.05
2019-06-08T02:49:20.509Z,100801.08
2019-06-08T02:49:57.039Z,100797.55
2019-06-08T02:50:58.116Z,100801.60
2019-06-08T02:51:36.470Z,100807.16
2019-06-08T02:52:13.001Z,100799.78
2019-06-08T02:52:50.238Z,100807.71
2019-06-08T02:53:29.069Z,100802.05
2019-06-08T02:54:05.856Z,100799.94
2019-06-08T02:54:42.451Z,100798.08
2019-06-08T02:55:18.606Z,100803.58
2019-06-08T02:55:55.439Z,100800.45
2019-06-08T02:56:34.131Z,100800.84
2019-06-08T02:57:10.743Z,100793.11
2019-06-08T02:57:47.948Z,100801.48
2019-06-08T02:58:24.938Z,100798.64
2019-06-08T02:59:02.930Z,100796.58
2019-06-08T02:59:44.283Z,100798.03
2019-06-08T03:00:21.266Z,100798.85
2019-06-08T03:00:57.885Z,100797.72
2019-06-08T03:01:38.235Z,100796.30
2019-06-08T03:02:15.299Z,100795.78
2019-06-08T03:02:53.974Z,100804.58
2019-06-08T03:03:33.801Z,100799.48
2019-06-08T03:04:10.377Z,100798.16
2019-06-08T03:04:46.897Z,100797.02
2019-06-08T03:05:27.289Z,100800.54
2019-06-08T03:06:04.927Z,100803.38
2019-06-08T03:06:42.423Z,100797.69
2019-06-08T03:07:20.630Z,100807.02
2019-06-08T03:07:57.690Z,100800.40
2019-06-08T03:08:41.544Z,100800.17
2019-06-08T03:09:18.992Z,100798.33
2019-06-08T03:09:57.448Z,100798.29
2019-06-08T03:10:35.246Z,100799.87
2019-06-08T03:11:15.958Z,100797.89
2019-06-08T03:11:52.315Z,100797.50
2019-06-08T03:12:31.137Z,100798.70
2019-06-08T03:13:08.932Z,100806.64
2019-06-08T03:13:47.144Z,100799.68
2019-06-08T03:14:27.791Z,100802.59
2019-06-08T03:15:04.596Z,100809.38
2019-06-08T03:15:43.537Z,100798.22
2019-06-08T03:16:19.346Z,100807.38
2019-06-08T03:16:56.063Z,100807.22
2019-06-08T03:17:35.056Z,100804.83
2019-06-08T03:18:11.785Z,100805.16
2019-06-08T03:18:48.299Z,100805.70
2019-06-08T03:19:24.936Z,100798.84
2019-06-08T03:20:01.432Z,100800.02
2019-06-08T03:20:39.987Z,100805.20
2019-06-08T03:21:16.737Z,100797.89
2019-06-08T03:21:53.243Z,100800.11
2019-06-08T03:22:29.426Z,100803.80
2019-06-08T03:23:06.344Z,100804.47
2019-06-08T03:23:43.628Z,100801.94
2019-06-08T03:24:20.199Z,100805.20
2019-06-08T03:24:56.979Z,100805.72
2019-06-08T03:25:42.071Z,100802.06
2019-06-08T03:26:14.473Z,100802.25
2019-06-08T03:26:51.031Z,100808.95
2019-06-08T03:27:28.035Z,100796.64
2019-06-08T03:28:04.760Z,100805.13
2019-06-08T03:28:44.069Z,100807.06
2019-06-08T03:29:20.244Z,100807.06
2019-06-08T03:29:57.343Z,100801.43
2019-06-08T03:30:37.117Z,100803.70
2019-06-08T03:31:11.955Z,100803.84
2019-06-08T03:31:55.571Z,100801.21
2019-06-08T03:32:26.981Z,100800.06
2019-06-08T03:33:03.673Z,100803.86
2019-06-08T03:33:52.993Z,100805.92
2019-06-08T03:34:18.530Z,100804.00
2019-06-08T03:34:58.247Z,100805.92
2019-06-08T03:35:39.102Z,100804.33
2019-06-08T03:36:12.877Z,100808.32
2019-06-08T03:36:56.068Z,100809.45
2019-06-08T03:37:26.823Z,100800.94
2019-06-08T03:38:02.894Z,100799.95
2019-06-08T03:38:40.177Z,100803.80
2019-06-08T03:39:16.453Z,100806.13
2019-06-08T03:39:52.328Z,100801.91
2019-06-08T03:40:28.179Z,100804.02
2019-06-08T03:41:04.299Z,100813.25
2019-06-08T03:41:40.455Z,100809.00
2019-06-08T03:42:16.824Z,100803.67
2019-06-08T03:42:53.668Z,100803.67
2019-06-08T03:43:30.654Z,100805.47
2019-06-08T03:44:07.438Z,100796.33
2019-06-08T03:44:44.739Z,100800.73
2019-06-08T03:45:20.921Z,100803.67
2019-06-08T03:45:56.874Z,100804.64
2019-06-08T03:46:34.347Z,100795.67
2019-06-08T03:47:10.532Z,100792.32
2019-06-08T03:47:46.414Z,100801.04
2019-06-08T03:48:22.907Z,100798.31
2019-06-08T03:48:58.813Z,100800.58
2019-06-08T03:49:43.093Z,100803.63
2019-06-08T03:50:12.334Z,100798.05
2019-06-08T03:50:48.220Z,100798.19
2019-06-08T03:51:24.174Z,100794.79
2019-06-08T03:52:00.156Z,100791.27
2019-06-08T03:52:37.871Z,100792.86
2019-06-08T03:53:13.811Z,100792.39
2019-06-08T03:53:49.700Z,100790.47
2019-06-08T03:54:27.834Z,100792.86
2019-06-08T03:55:03.743Z,100782.87
2019-06-08T03:55:40.460Z,100792.66
2019-06-08T03:56:17.324Z,100782.87
2019-06-08T03:56:53.225Z,100785.94
2019-06-08T03:57:29.206Z,100788.53
2019-06-08T03:58:05.066Z,100790.34
2019-06-08T03:58:42.603Z,100787.81
2019-06-08T03:59:18.702Z,100790.25
2019-06-08T03:59:54.604Z,100785.13
2019-06-08T04:00:30.608Z,100785.92
2019-06-08T04:01:06.520Z,100783.86
2019-06-08T04:01:43.896Z,100788.85
2019-06-08T04:02:21.177Z,100784.06
2019-06-08T04:02:57.178Z,100782.34
2019-06-08T04:03:33.042Z,100782.17
2019-06-08T04:04:09.083Z,100783.27
2019-06-08T04:04:46.282Z,100781.20
2019-06-08T04:05:22.646Z,100780.73
2019-06-08T04:05:58.527Z,100782.53
2019-06-08T04:06:34.522Z,100772.95
2019-06-08T04:07:10.448Z,100779.73
2019-06-08T04:07:46.576Z,100774.91
2019-06-08T04:08:23.044Z,100782.61
2019-06-08T04:08:59.179Z,100780.69
2019-06-08T04:09:35.018Z,100780.55
2019-06-08T04:10:11.098Z,100784.40
2019-06-08T04:10:47.139Z,100780.08
2019-06-08T04:11:23.134Z,100778.16
2019-06-08T04:11:59.191Z,100773.31
2019-06-08T04:12:35.534Z,100773.36
2019-06-08T04:13:13.030Z,100772.36
2019-06-08T04:13:50.105Z,100774.81
2019-06-08T04:14:26.213Z,100767.65
2019-06-08T04:15:02.275Z,100769.32
2019-06-08T04:15:40.156Z,100766.66
2019-06-08T04:16:15.825Z,100771.05
2019-06-08T04:16:51.937Z,100764.23
2019-06-08T04:17:27.950Z,100765.62
2019-06-08T04:18:05.297Z,100762.24
2019-06-08T04:18:42.130Z,100765.16
2019-06-08T04:19:18.882Z,100761.97
2019-06-08T04:20:09.608Z,100761.30
2019-06-08T04:20:32.626Z,100770.48
2019-06-08T04:21:08.781Z,100755.13
2019-06-08T04:21:46.140Z,100757.97
2019-06-08T04:22:22.262Z,100754.52
2019-06-08T04:22:58.157Z,100761.30
2019-06-08T04:23:34.138Z,100755.19
2019-06-08T04:24:10.397Z,100754.24
2019-06-08T04:24:46.712Z,100758.78
2019-06-08T04:25:22.590Z,100760.13
2019-06-08T04:25:58.442Z,100760.69
2019-06-08T04:26:34.461Z,100758.11
2019-06-08T04:27:10.560Z,100748.11
2019-06-08T04:27:48.426Z,100758.78
2019-06-08T04:28:25.693Z,100753.30
2019-06-08T04:29:01.835Z,100753.08
2019-06-08T04:29:39.575Z,100753.30
2019-06-08T04:30:18.584Z,100758.55
2019-06-08T04:30:54.566Z,100759.45
2019-06-08T04:31:30.600Z,100765.98
2019-06-08T04:32:06.682Z,100766.41
2019-06-08T04:32:44.763Z,100762.95
2019-06-08T04:33:21.549Z,100755.48
2019-06-08T04:33:57.649Z,100748.52
2019-06-08T04:34:34.002Z,100746.17
2019-06-08T04:35:10.746Z,100745.11
2019-06-08T04:35:47.303Z,100747.84
2019-06-08T04:36:23.359Z,100749.17
2019-06-08T04:36:59.497Z,100749.70
2019-06-08T04:37:35.588Z,100752.63
2019-06-08T04:38:11.806Z,100747.67
2019-06-08T04:38:50.108Z,100744.20
2019-06-08T04:39:25.742Z,100748.25
2019-06-08T04:40:03.930Z,100751.43
2019-06-08T04:40:41.449Z,100742.66
2019-06-08T04:41:18.793Z,100746.36
2019-06-08T04:41:54.835Z,100748.47
2019-06-08T04:42:30.808Z,100745.94
2019-06-08T04:43:06.965Z,100745.44
2019-06-08T04:43:44.857Z,100741.77
2019-06-08T04:44:20.521Z,100735.39
2019-06-08T04:44:56.490Z,100740.55
2019-06-08T04:45:32.446Z,100741.20
2019-06-08T04:46:13.751Z,100736.88
2019-06-08T04:46:52.410Z,100736.38
2019-06-08T04:47:30.085Z,100733.84
2019-06-08T04:48:09.543Z,100733.19
2019-06-08T04:48:45.232Z,100743.74
2019-06-08T04:49:21.921Z,100726.48
2019-06-08T04:49:58.089Z,100735.61
2019-06-08T04:50:35.250Z,100733.22
2019-06-08T04:51:11.103Z,100730.02
2019-06-08T04:51:47.703Z,100726.00
2019-06-08T04:52:24.796Z,100736.08
2019-06-08T04:53:00.748Z,100729.38
2019-06-08T04:53:36.641Z,100729.22
2019-06-08T04:54:14.544Z,100729.88
2019-06-08T04:54:50.351Z,100726.20
2019-06-08T04:55:26.378Z,100733.89
2019-06-08T04:56:03.438Z,100725.25
2019-06-08T04:56:40.913Z,100725.25
2019-06-08T04:57:17.201Z,100726.70
2019-06-08T04:57:53.139Z,100724.59
2019-06-08T04:58:29.389Z,100724.13
2019-06-08T04:59:06.048Z,100719.33
2019-06-08T04:59:43.879Z,100726.21
2019-06-08T05:00:20.920Z,100726.83
2019-06-08T05:00:58.400Z,100722.03
2019-06-08T05:01:35.139Z,100717.24
2019-06-08T05:02:11.002Z,100718.69
2019-06-08T05:02:48.869Z,100717.55
2019-06-08T05:03:24.582Z,100714.35
2019-06-08T05:04:00.589Z,100708.44
2019-06-08T05:04:36.614Z,100707.96
2019-06-08T05:05:12.513Z,100713.40
2019-06-08T05:05:50.121Z,100705.25
2019-06-08T05:06:27.746Z,100710.20
2019-06-08T05:07:03.627Z,100710.20
2019-06-08T05:07:41.394Z,100711.17
2019-06-08T05:08:17.288Z,100707.66
2019-06-08T05:08:53.217Z,100710.69
2019-06-08T05:09:29.119Z,100712.09
2019-06-08T05:10:06.804Z,100707.30
2019-06-08T05:10:43.374Z,100713.38
2019-06-08T05:11:19.462Z,100706.99
2019-06-08T05:11:55.554Z,100714.66
2019-06-08T05:12:33.059Z,100709.06
2019-06-08T05:13:09.128Z,100696.41
2019-06-08T05:13:45.323Z,100702.45
2019-06-08T05:14:21.291Z,100697.66
2019-06-08T05:14:59.479Z,100703.73
2019-06-08T05:15:35.397Z,100702.93
2019-06-08T05:16:14.988Z,100705.97
2019-06-08T05:16:50.819Z,100703.57
2019-06-08T05:17:26.713Z,100698.30
2019-06-08T05:18:02.603Z,100700.84
2019-06-08T05:18:39.173Z,100699.86
2019-06-08T05:19:15.206Z,100702.72
2019-06-08T05:19:51.128Z,100703.99
2019-06-08T05:20:38.337Z,100702.55
2019-06-08T05:21:06.107Z,100701.03
2019-06-08T05:21:43.419Z,100701.33
2019-06-08T05:22:19.531Z,100702.77
2019-06-08T05:22:55.425Z,100700.99
2019-06-08T05:23:31.436Z,100697.42
2019-06-08T05:24:07.348Z,100696.45
2019-06-08T05:24:43.570Z,100700.91
2019-06-08T05:25:19.591Z,100691.31
2019-06-08T05:25:55.478Z,100691.31
2019-06-08T05:26:31.462Z,100685.89
2019-06-08T05:27:08.898Z,100679.34
2019-06-08T05:27:45.376Z,100685.57
2019-06-08T05:28:23.085Z,100679.83
2019-06-08T05:28:58.948Z,100681.43
2019-06-08T05:29:34.881Z,100683.03
2019-06-08T05:30:10.912Z,100679.20
2019-06-08T05:30:49.520Z,100678.09
2019-06-08T05:31:25.593Z,100671.55
2019-06-08T05:32:01.619Z,100669.33
2019-06-08T05:32:37.519Z,100670.92
2019-06-08T05:33:13.509Z,100666.30
2019-06-08T05:33:49.839Z,100666.47
2019-06-08T05:34:27.259Z,100670.77
2019-06-08T05:35:03.108Z,100671.89
2019-06-08T05:35:39.388Z,100663.27
2019-06-08T05:36:15.541Z,100664.06
2019-06-08T05:36:51.591Z,100654.02
2019-06-08T05:37:27.755Z,100663.75
2019-06-08T05:38:03.660Z,100667.58
2019-06-08T05:38:39.637Z,100663.27
2019-06-08T05:39:15.587Z,100656.24
2019-06-08T05:39:51.691Z,100662.30
2019-06-08T05:40:27.718Z,100666.12
2019-06-08T05:41:03.811Z,100658.56
2019-06-08T05:41:41.425Z,100663.50
2019-06-08T05:42:18.655Z,100659.02
2019-06-08T05:42:54.487Z,100657.53
2019-06-08T05:43:30.437Z,100663.27
2019-06-08T05:44:06.386Z,100659.09
2019-06-08T05:44:43.613Z,100660.31
2019-06-08T05:45:19.804Z,100655.52
2019-06-08T05:45:58.242Z,100660.13
2019-06-08T05:46:35.783Z,100658.05
2019-06-08T05:47:11.685Z,100662.98
2019-06-08T05:47:50.110Z,100661.38
2019-06-08T05:48:27.898Z,100655.47
2019-06-08T05:49:04.552Z,100653.08
2019-06-08T05:49:43.653Z,100646.36
2019-06-08T05:50:21.859Z,100648.55
2019-06-08T05:51:03.846Z,100648.55
2019-06-08T05:51:36.771Z,100646.95
2019-06-08T05:52:13.054Z,100646.16
2019-06-08T05:52:50.299Z,100644.24
2019-06-08T05:53:26.675Z,100641.53
2019-06-08T05:54:04.107Z,100641.53
2019-06-08T05:54:42.323Z,100637.71
2019-06-08T05:55:19.726Z,100635.80
2019-06-08T05:55:56.136Z,100638.23
2019-06-08T05:56:32.180Z,100641.43
2019-06-08T05:57:08.396Z,100641.92
2019-06-08T05:57:46.277Z,100638.09
2019-06-08T05:58:22.414Z,100635.88
2019-06-08T05:58:58.817Z,100633.65
2019-06-08T05:59:34.752Z,100636.84
2019-06-08T06:00:12.296Z,100626.94
2019-06-08T06:00:48.395Z,100634.45
2019-06-08T06:01:24.387Z,100633.82
2019-06-08T06:02:00.995Z,100633.20
2019-06-08T06:02:38.531Z,100633.37
2019-06-08T06:03:16.461Z,100638.20
2019-06-08T06:03:52.353Z,100630.55
2019-06-08T06:04:28.446Z,100633.75
2019-06-08T06:05:04.364Z,100635.34
2019-06-08T06:05:40.278Z,100633.13
2019-06-08T06:06:16.183Z,100627.70
2019-06-08T06:06:52.124Z,100635.03
2019-06-08T06:07:28.193Z,100628.33
2019-06-08T06:08:16.034Z,100627.52
2019-06-08T06:08:42.477Z,100635.97
2019-06-08T06:09:19.333Z,100627.84
2019-06-08T06:09:55.228Z,100630.55
2019-06-08T06:10:31.218Z,100626.23
2019-06-08T06:11:07.287Z,100623.53
2019-06-08T06:11:44.798Z,100621.13
2019-06-08T06:12:20.931Z,100621.93
2019-06-08T06:12:56.960Z,100616.51
2019-06-08T06:13:32.858Z,100626.23
2019-06-08T06:14:08.918Z,100618.59
2019-06-08T06:14:45.006Z,100611.25
2019-06-08T06:15:21.095Z,100619.08
2019-06-08T06:15:57.759Z,100616.05
2019-06-08T06:16:33.704Z,100620.05
2019-06-08T06:17:09.612Z,100611.59
2019-06-08T06:17:46.650Z,100609.09
2019-06-08T06:18:23.366Z,100610.37
2019-06-08T06:18:59.392Z,100612.77
2019-06-08T06:19:36.765Z,100610.53
2019-06-08T06:20:13.426Z,100608.34
2019-06-08T06:20:49.447Z,100603.71
2019-06-08T06:21:25.409Z,100611.53
2019-06-08T06:22:01.545Z,100606.11
2019-06-08T06:22:37.521Z,100607.70
2019-06-08T06:23:13.478Z,100609.30
2019-06-08T06:23:49.477Z,100607.88
2019-06-08T06:24:25.358Z,100605.00
2019-06-08T06:25:02.855Z,100607.08
2019-06-08T06:25:38.838Z,100617.92
2019-06-08T06:26:14.807Z,100613.13
2019-06-08T06:26:51.701Z,100602.28
2019-06-08T06:27:28.047Z,100601.48
2019-06-08T06:28:06.355Z,100602.28
2019-06-08T06:28:43.423Z,100608.19
2019-06-08T06:29:19.443Z,100609.30
2019-06-08T06:29:55.312Z,100606.59
2019-06-08T06:30:32.507Z,100607.08
2019-06-08T06:31:08.999Z,100602.28
2019-06-08T06:31:47.828Z,100609.30
2019-06-08T06:32:23.971Z,100607.70
2019-06-08T06:32:59.888Z,100600.69
2019-06-08T06:33:36.367Z,100599.09
2019-06-08T06:34:12.520Z,100599.69
2019-06-08T06:34:48.400Z,100603.52
2019-06-08T06:35:25.450Z,100594.89
2019-06-08T06:36:01.444Z,100597.92
2019-06-08T06:36:37.457Z,100597.44
2019-06-08T06:37:13.476Z,100597.75
2019-06-08T06:37:50.234Z,100599.35
2019-06-08T06:38:26.287Z,100599.95
2019-06-08T06:39:05.018Z,100587.50
2019-06-08T06:39:41.922Z,100594.24
2019-06-08T06:40:20.434Z,100596.75
2019-06-08T06:40:56.289Z,100595.33
2019-06-08T06:41:32.203Z,100595.64
2019-06-08T06:42:09.465Z,100591.02
2019-06-08T06:42:45.962Z,100585.31
2019-06-08T06:43:22.253Z,100593.92
2019-06-08T06:43:59.349Z,100593.30
2019-06-08T06:44:35.214Z,100585.21
2019-06-08T06:45:11.362Z,100589.26
2019-06-08T06:45:48.025Z,100588.95
2019-06-08T06:46:23.995Z,100585.12
2019-06-08T06:47:00.567Z,100579.69
2019-06-08T06:47:36.564Z,100585.59
2019-06-08T06:48:13.217Z,100582.56
2019-06-08T06:48:50.327Z,100579.53
2019-06-08T06:49:26.497Z,100587.67
2019-06-08T06:50:03.118Z,100581.12
2019-06-08T06:50:39.977Z,100578.73
2019-06-08T06:51:25.682Z,100586.08
2019-06-08T06:51:54.002Z,100581.77
2019-06-08T06:52:29.966Z,100577.45
2019-06-08T06:53:05.991Z,100573.63
2019-06-08T06:53:42.752Z,100586.08
2019-06-08T06:54:18.920Z,100573.63
2019-06-08T06:54:55.839Z,100568.20
2019-06-08T06:55:31.792Z,100572.03
2019-06-08T06:56:07.654Z,100571.23
2019-06-08T06:56:43.511Z,100572.67
2019-06-08T06:57:19.526Z,100575.38
2019-06-08T06:57:55.407Z,100580.33
2019-06-08T06:58:31.623Z,100576.34